Time;durP1;ratioP1;P1;durP2;ratioP2;P2;SDS_P1;SDS_P2;PMS_P1;PMS_P2;Temp;Humidity;BMP_temperature;BMP_pressure;BME280_temperature;BME280_humidity;BME280_pressure;Samples;Min_cycle;Max_cycle;Signal;HPM_P1;HPM_P2
2023/09/20 00:01:23;;;;;;;11.87;11.03;;;;;;;16.30;100.00;93093.97;5089771;28;20182;-78
2023/09/20 00:03:49;;;;;;;12.53;11.67;;;;;;;16.34;100.00;93102.84;5089311;28;20984;-78
2023/09/20 00:06:17;;;;;;;11.30;10.30;;;;;;;15.84;100.00;93104.03;5081091;28;20240;-79
2023/09/20 00:08:42;;;;;;;11.60;10.87;;;;;;;16.01;100.00;93102.31;5086291;28;20205;-79
2023/09/20 00:11:15;;;;;;;11.37;10.53;;;;;;;15.97;100.00;93090.00;5089667;28;20185;-79
2023/09/20 00:13:40;;;;;;;11.53;10.53;;;;;;;16.22;100.00;93110.47;5088838;28;20247;-78
2023/09/20 00:16:07;;;;;;;12.17;11.20;;;;;;;15.97;100.00;93101.34;5089595;28;20208;-78
2023/09/20 00:18:33;;;;;;;11.13;10.37;;;;;;;16.03;100.00;93104.66;5088904;28;20217;-78
2023/09/20 00:21:01;;;;;;;11.37;10.50;;;;;;;15.99;100.00;93087.88;5089696;28;20215;-78
2023/09/20 00:23:27;;;;;;;11.33;10.53;;;;;;;15.97;100.00;93096.06;5088473;28;20213;-79
2023/09/20 00:25:52;;;;;;;11.13;10.33;;;;;;;16.01;100.00;93098.88;5089878;28;20244;-79
2023/09/20 00:28:18;;;;;;;12.50;11.17;;;;;;;15.86;100.00;93107.13;5088871;28;20229;-79
2023/09/20 00:30:45;;;;;;;11.57;10.77;;;;;;;15.73;100.00;93107.97;5089687;28;20199;-78
2023/09/20 00:33:10;;;;;;;11.53;10.73;;;;;;;15.66;100.00;93094.41;5089062;28;20231;-78
2023/09/20 00:35:37;;;;;;;12.70;11.90;;;;;;;15.82;100.00;93100.91;5089539;28;20275;-78
2023/09/20 00:38:03;;;;;;;13.30;12.30;;;;;;;15.89;100.00;93102.03;5084460;28;20228;-78
2023/09/20 00:40:28;;;;;;;12.50;11.50;;;;;;;15.97;100.00;93101.34;5069330;28;20173;-78
2023/09/20 00:43:00;;;;;;;12.07;11.23;;;;;;;16.10;100.00;93107.63;5068861;28;20293;-78
2023/09/20 00:45:26;;;;;;;10.60;9.90;;;;;;;16.11;100.00;93106.53;5069413;28;20219;-78
2023/09/20 00:47:56;;;;;;;11.13;10.43;;;;;;;16.08;100.00;93101.88;5068753;28;20260;-78
2023/09/20 00:50:26;;;;;;;11.93;11.10;;;;;;;16.13;100.00;93108.88;5068957;28;20193;-78
2023/09/20 00:52:54;;;;;;;11.97;11.03;;;;;;;16.01;100.00;93099.69;5068857;28;20225;-79
2023/09/20 00:55:24;;;;;;;11.00;10.20;;;;;;;16.10;100.00;93094.44;5069284;28;20267;-79
2023/09/20 00:57:51;;;;;;;11.43;10.60;;;;;;;16.07;100.00;93100.31;5068766;28;20277;-79
2023/09/20 01:00:27;;;;;;;11.27;10.47;;;;;;;16.02;100.00;93097.78;5064914;28;20185;-78
2023/09/20 01:02:54;;;;;;;10.77;9.87;;;;;;;16.00;100.00;93107.84;5075354;28;20234;-79
2023/09/20 01:05:25;;;;;;;11.93;11.13;;;;;;;15.76;100.00;93095.00;5091515;28;20200;-77
2023/09/20 01:07:55;;;;;;;10.17;9.37;;;;;;;15.72;100.00;93101.91;5098344;28;20219;-79
2023/09/20 01:10:25;;;;;;;11.87;10.70;;;;;;;15.72;100.00;93096.63;5090149;28;20203;-78
2023/09/20 01:12:56;;;;;;;11.97;10.83;;;;;;;15.47;100.00;93097.19;5067358;28;20229;-78
2023/09/20 01:15:22;;;;;;;12.00;11.20;;;;;;;15.57;100.00;93098.84;5068709;28;20206;-78
2023/09/20 01:17:50;;;;;;;12.77;11.53;;;;;;;15.56;100.00;93113.88;5061553;28;20242;-79
2023/09/20 01:20:18;;;;;;;11.77;10.87;;;;;;;15.44;100.00;93103.06;5069853;28;20193;-78
2023/09/20 01:22:44;;;;;;;11.77;10.93;;;;;;;15.53;100.00;93100.50;5071788;28;20201;-79
2023/09/20 01:25:16;;;;;;;11.90;11.03;;;;;;;15.36;100.00;93084.53;5062963;28;20189;-78
2023/09/20 01:27:43;;;;;;;13.70;12.50;;;;;;;15.36;100.00;93079.28;5042782;28;20186;-78
2023/09/20 01:30:08;;;;;;;14.37;13.17;;;;;;;15.40;100.00;93096.84;5072186;28;20245;-78
2023/09/20 01:32:36;;;;;;;13.30;11.97;;;;;;;15.40;100.00;93088.16;5072076;28;20182;-77
2023/09/20 01:35:02;;;;;;;12.40;11.37;;;;;;;15.26;100.00;93084.72;5071863;28;20209;-78
2023/09/20 01:37:28;;;;;;;14.50;11.50;;;;;;;15.38;100.00;93095.56;5072098;28;20182;-78
2023/09/20 01:39:54;;;;;;;13.80;12.17;;;;;;;15.40;100.00;93096.84;5070963;28;20292;-78
2023/09/20 01:42:21;;;;;;;12.17;11.30;;;;;;;15.56;100.00;93107.81;5071050;28;20190;-78
2023/09/20 01:44:49;;;;;;;12.70;11.80;;;;;;;15.65;100.00;93111.28;5071733;28;20304;-75
2023/09/20 01:47:14;;;;;;;13.20;12.10;;;;;;;15.86;100.00;93109.75;5071874;28;20174;-78
2023/09/20 01:49:41;;;;;;;13.37;12.27;;;;;;;15.88;100.00;93118.13;5071627;28;20244;-77
2023/09/20 01:52:06;;;;;;;13.57;12.27;;;;;;;15.84;100.00;93117.19;5071741;28;20180;-77
2023/09/20 01:54:32;;;;;;;15.03;13.73;;;;;;;15.88;100.00;93110.25;5071205;28;20222;-79
2023/09/20 01:56:58;;;;;;;13.50;12.50;;;;;;;15.88;100.00;93116.28;5072553;28;20201;-78
2023/09/20 01:59:23;;;;;;;13.97;12.77;;;;;;;15.89;100.00;93103.91;5071166;28;20209;-77
2023/09/20 02:01:48;;;;;;;14.20;13.10;;;;;;;15.75;100.00;93103.94;5072185;28;20200;-78
2023/09/20 02:04:21;;;;;;;14.07;12.97;;;;;;;15.67;100.00;93096.00;5071214;28;20232;-77
2023/09/20 02:06:47;;;;;;;14.27;13.03;;;;;;;15.76;100.00;93096.84;5071426;28;20177;-78
2023/09/20 02:09:14;;;;;;;12.90;11.57;;;;;;;15.76;100.00;93092.34;5071038;28;20243;-77
2023/09/20 02:11:40;;;;;;;13.73;12.43;;;;;;;15.57;100.00;93085.66;5071370;28;20178;-77
2023/09/20 02:14:05;;;;;;;14.50;13.23;;;;;;;15.62;100.00;93099.50;5084716;28;20228;-78
2023/09/20 02:16:34;;;;;;;14.47;13.33;;;;;;;15.69;100.00;93099.09;5091383;28;20210;-76
2023/09/20 02:19:00;;;;;;;21.40;13.00;;;;;;;15.72;100.00;93103.78;5078334;28;20217;-77
2023/09/20 02:21:26;;;;;;;14.13;12.70;;;;;;;15.75;100.00;93108.44;5071351;28;20197;-78
2023/09/20 02:23:56;;;;;;;15.73;12.27;;;;;;;15.75;100.00;93103.94;5086535;28;20220;-78
2023/09/20 02:26:22;;;;;;;20.70;11.33;;;;;;;15.66;100.00;93105.72;5092045;28;20208;-78
2023/09/20 02:28:47;;;;;;;13.50;12.27;;;;;;;15.70;100.00;93098.78;5090747;28;20223;-78
2023/09/20 02:31:13;;;;;;;19.73;12.00;;;;;;;15.58;100.00;93108.31;5090980;28;20197;-78
2023/09/20 02:33:39;;;;;;;14.17;11.97;;;;;;;15.58;100.00;93103.03;5089996;28;20236;-78
2023/09/20 02:36:05;;;;;;;14.17;12.87;;;;;;;15.59;100.00;93105.38;5091083;28;20297;-77
2023/09/20 02:38:30;;;;;;;16.37;12.87;;;;;;;15.58;100.00;93106.44;5090643;28;20217;-75
2023/09/20 02:40:56;;;;;;;14.53;12.67;;;;;;;15.36;100.00;93110.84;5080229;28;20178;-77
2023/09/20 02:43:22;;;;;;;18.73;12.73;;;;;;;15.33;100.00;93111.44;5078555;28;20313;-78
2023/09/20 02:45:47;;;;;;;14.47;11.87;;;;;;;15.04;100.00;93113.59;5064412;28;20185;-78
2023/09/20 02:48:13;;;;;;;12.37;11.47;;;;;;;14.82;100.00;93111.63;5070375;28;20233;-78
2023/09/20 02:50:41;;;;;;;12.87;11.73;;;;;;;14.80;100.00;93113.00;5071278;28;20255;-78
2023/09/20 02:53:07;;;;;;;13.13;11.80;;;;;;;14.98;100.00;93110.28;5070518;28;20260;-78
2023/09/20 02:55:34;;;;;;;11.67;10.87;;;;;;;15.15;100.00;93109.69;5070816;28;20213;-78
2023/09/20 02:57:59;;;;;;;11.50;10.70;;;;;;;15.06;100.00;93111.44;5071054;28;20221;-78
2023/09/20 03:00:31;;;;;;;11.43;10.63;;;;;;;14.98;100.00;93097.13;5070812;28;20285;-77
2023/09/20 03:03:00;;;;;;;10.77;9.97;;;;;;;14.95;100.00;93110.09;5077050;28;20228;-77
2023/09/20 03:05:36;;;;;;;11.53;10.53;;;;;;;14.79;100.00;93106.19;5094860;28;20199;-75
2023/09/20 03:08:01;;;;;;;12.30;11.30;;;;;;;14.73;100.00;93107.34;5075748;28;20221;-74
2023/09/20 03:10:28;;;;;;;12.77;11.87;;;;;;;14.79;100.00;93111.44;5069983;28;20392;-74
2023/09/20 03:12:55;;;;;;;12.00;11.20;;;;;;;14.77;100.00;93111.72;5062415;28;20229;-75
2023/09/20 03:15:25;;;;;;;11.20;10.50;;;;;;;14.86;100.00;93117.88;5066922;28;20213;-73
2023/09/20 03:18:03;;;;;;;12.17;11.23;;;;;;;14.86;100.00;93123.16;5069770;28;20240;-74
2023/09/20 03:20:32;;;;;;;12.37;11.50;;;;;;;14.82;100.00;93116.13;5089357;28;20191;-74
2023/09/20 03:22:59;;;;;;;12.87;11.77;;;;;;;14.78;100.00;93115.94;5090188;28;20867;-74
2023/09/20 03:25:28;;;;;;;10.50;9.90;;;;;;;14.81;100.00;93114.56;5089933;28;20338;-74
2023/09/20 03:27:55;;;;;;;11.93;11.03;;;;;;;14.70;100.00;93103.47;5089848;28;20236;-73
2023/09/20 03:30:21;;;;;;;12.13;10.90;;;;;;;14.61;100.00;93091.28;5077560;28;20196;-74
2023/09/20 03:32:47;;;;;;;11.33;10.07;;;;;;;14.58;100.00;93116.31;5089495;28;20177;-75
2023/09/20 03:35:14;;;;;;;11.93;10.87;;;;;;;14.64;100.00;93111.72;5089607;28;20227;-74
2023/09/20 03:37:41;;;;;;;11.27;10.43;;;;;;;14.63;100.00;93105.69;5089338;28;20265;-74
2023/09/20 03:40:15;;;;;;;10.20;9.30;;;;;;;14.59;100.00;93111.81;5089297;28;20181;-73
2023/09/20 03:42:41;;;;;;;11.77;10.87;;;;;;;14.50;100.00;93098.56;5088743;28;20252;-75
2023/09/20 03:45:11;;;;;;;12.07;11.07;;;;;;;14.63;100.00;93105.69;5071589;28;20180;-73
2023/09/20 03:47:41;;;;;;;12.47;11.50;;;;;;;14.63;100.00;93099.66;5088628;28;20189;-74
2023/09/20 03:50:09;;;;;;;11.53;10.73;;;;;;;14.67;100.00;93100.63;5089588;28;20173;-77
2023/09/20 03:52:39;;;;;;;11.73;10.73;;;;;;;14.62;100.00;93101.50;5088086;28;20196;-79
2023/09/20 03:55:08;;;;;;;11.13;10.43;;;;;;;14.64;100.00;93104.63;5068267;28;20224;-83
2023/09/20 03:57:34;;;;;;;11.33;10.30;;;;;;;14.59;100.00;93107.34;5081479;28;20202;-82
2023/09/20 04:00:00;;;;;;;12.63;9.57;;;;;;;14.62;100.00;93108.59;5096869;28;20180;-83
2023/09/20 04:02:26;;;;;;;11.30;10.60;;;;;;;14.56;100.00;93107.13;5086097;28;20202;-81
2023/09/20 04:04:53;;;;;;;12.53;11.43;;;;;;;14.60;100.00;93108.88;5075334;28;20209;-81
2023/09/20 04:07:19;;;;;;;12.10;10.97;;;;;;;14.56;100.00;93109.75;5082065;28;20249;-82
2023/09/20 04:09:45;;;;;;;18.45;16.77;;;;;;;14.46;100.00;93106.25;5062538;28;20429;-77
2023/09/20 04:12:12;;;;;;;23.50;21.37;;;;;;;14.50;100.00;93116.97;5068445;28;20609;-79
2023/09/20 04:14:38;;;;;;;32.17;28.80;;;;;;;14.54;100.00;93112.69;5085789;28;20225;-77
2023/09/20 04:17:04;;;;;;;58.23;45.70;;;;;;;14.43;100.00;93113.94;5081688;28;20208;-80
2023/09/20 04:19:30;;;;;;;68.47;53.23;;;;;;;14.42;100.00;93118.41;5077930;28;20209;-81
2023/09/20 04:21:56;;;;;;;71.63;52.43;;;;;;;14.38;100.00;93112.16;5085716;28;20188;-76
2023/09/20 04:24:21;;;;;;;53.57;45.00;;;;;;;14.40;100.00;93110.03;5082570;28;20263;-81
2023/09/20 04:26:47;;;;;;;46.83;35.53;;;;;;;14.48;100.00;93105.97;5087649;28;20214;-76
2023/09/20 04:29:12;;;;;;;31.20;23.10;;;;;;;14.51;100.00;93105.38;5088021;28;20247;-79
2023/09/20 04:31:38;;;;;;;20.73;18.63;;;;;;;14.54;100.00;93093.53;5088424;28;20176;-80
2023/09/20 04:34:03;;;;;;;19.67;17.03;;;;;;;14.67;100.00;93105.88;5087739;28;20228;-80
2023/09/20 04:36:30;;;;;;;25.63;17.70;;;;;;;14.70;100.00;93108.72;5088554;28;20209;-82
2023/09/20 04:38:55;;;;;;;15.50;13.90;;;;;;;14.75;100.00;93110.47;5085620;28;20221;-77
2023/09/20 04:41:21;;;;;;;18.40;14.30;;;;;;;14.78;100.00;93115.94;5088477;28;20267;-87
2023/09/20 04:43:47;;;;;;;15.17;13.57;;;;;;;14.83;100.00;93117.69;5088179;28;20220;-80
2023/09/20 04:46:13;;;;;;;17.63;13.73;;;;;;;14.88;100.00;93126.25;5088100;28;20203;-85
2023/09/20 04:48:39;;;;;;;14.07;11.83;;;;;;;14.92;100.00;93121.97;5082223;28;20255;-80
2023/09/20 04:51:05;;;;;;;12.67;11.47;;;;;;;14.97;100.00;93116.63;5089324;28;20184;-80
2023/09/20 04:53:33;;;;;;;13.57;12.10;;;;;;;15.04;100.00;93121.47;5088010;28;20223;-80
2023/09/20 04:55:58;;;;;;;14.07;12.20;;;;;;;14.87;100.00;93092.34;5090418;28;20207;-80
2023/09/20 04:58:23;;;;;;;13.70;12.53;;;;;;;15.27;100.00;93117.88;5091595;28;20220;-79
2023/09/20 05:00:49;;;;;;;12.97;11.80;;;;;;;15.24;100.00;93102.66;5092068;28;20188;-80
2023/09/20 05:03:15;;;;;;;14.00;12.80;;;;;;;15.25;100.00;93112.13;5091389;28;20232;-82
2023/09/20 05:05:41;;;;;;;13.27;12.17;;;;;;;15.31;100.00;93122.25;5091467;28;20180;-78
2023/09/20 05:08:08;;;;;;;13.17;12.07;;;;;;;15.28;100.00;93124.69;5090834;28;20224;-79
2023/09/20 05:10:34;;;;;;;13.93;12.73;;;;;;;15.31;100.00;93124.09;5091601;28;20199;-80
2023/09/20 05:13:00;;;;;;;14.97;13.63;;;;;;;15.30;100.00;93133.06;5090951;28;20221;-80
2023/09/20 05:15:25;;;;;;;16.43;14.97;;;;;;;15.35;100.00;93136.38;5092095;28;20208;-79
2023/09/20 05:17:51;;;;;;;15.80;14.27;;;;;;;15.55;100.00;93140.44;5091594;28;20217;-79
2023/09/20 05:20:16;;;;;;;30.07;13.80;;;;;;;15.45;100.00;93135.41;5093198;28;20196;-79
2023/09/20 05:22:42;;;;;;;24.90;15.37;;;;;;;15.80;100.00;93142.53;5092270;28;20199;-77
2023/09/20 05:25:08;;;;;;;31.60;15.43;;;;;;;16.27;100.00;93134.09;5075420;28;20180;-79
2023/09/20 05:27:34;;;;;;;15.60;14.00;;;;;;;16.46;100.00;93155.00;5094443;28;20231;-79
2023/09/20 05:30:00;;;;;;;47.63;15.57;;;;;;;16.23;100.00;93156.84;5096352;28;20195;-77
2023/09/20 05:32:26;;;;;;;29.57;15.63;;;;;;;16.58;100.00;93153.38;5092914;28;20191;-79
2023/09/20 05:34:51;;;;;;;30.10;15.10;;;;;;;16.80;100.00;93169.19;5091509;28;20555;-79
2023/09/20 05:37:17;;;;;;;24.20;14.87;;;;;;;16.50;100.00;93177.06;5092654;28;20197;-79
2023/09/20 05:39:48;;;;;;;32.03;14.63;;;;;;;16.41;100.00;93174.31;5091843;28;20216;-77
2023/09/20 05:42:14;;;;;;;37.23;14.57;;;;;;;16.43;100.00;93171.41;5092650;28;20237;-80
2023/09/20 05:44:40;;;;;;;28.93;15.07;;;;;;;16.72;100.00;93166.47;5091621;28;20220;-78
2023/09/20 05:47:08;;;;;;;31.43;14.77;;;;;;;16.99;100.00;93169.75;5092367;28;20204;-80
2023/09/20 05:49:34;;;;;;;19.77;14.77;;;;;;;16.99;100.00;93146.00;5091746;28;20259;-80
2023/09/20 05:52:00;;;;;;;23.67;14.03;;;;;;;17.16;100.00;93180.38;5092112;28;20169;-77
2023/09/20 05:54:25;;;;;;;38.43;14.13;;;;;;;17.06;100.00;93185.13;5073732;28;20216;-80
2023/09/20 05:56:51;;;;;;;40.47;13.83;;;;;;;16.63;100.00;93182.25;5092251;28;20189;-81
2023/09/20 05:59:16;;;;;;;19.77;15.17;;;;;;;16.94;100.00;93185.69;5087683;28;20221;-79
2023/09/20 06:01:42;;;;;;;22.80;15.87;;;;;;;17.08;100.00;93183.75;5082757;28;20173;-79
2023/09/20 06:04:09;;;;;;;19.43;14.80;;;;;;;17.39;100.00;93178.41;5091505;28;20224;-80
2023/09/20 06:06:38;;;;;;;25.50;15.73;;;;;;;17.65;100.00;93189.09;5091841;28;20212;-80
2023/09/20 06:09:04;;;;;;;18.67;16.20;;;;;;;17.72;100.00;93202.63;5091130;28;20240;-79
2023/09/20 06:11:29;;;;;;;18.03;16.07;;;;;;;17.65;100.00;93202.31;5091544;28;20204;-80
2023/09/20 06:13:55;;;;;;;18.07;16.13;;;;;;;17.60;100.00;93185.50;5090772;28;20228;-80
2023/09/20 06:16:22;;;;;;;22.67;14.33;;;;;;;17.79;100.00;93192.41;5091364;28;20212;-80
2023/09/20 06:18:50;;;;;;;31.93;15.27;;;;;;;17.57;100.00;93191.41;5090971;28;20217;-80
2023/09/20 06:21:17;;;;;;;22.83;15.57;;;;;;;17.29;100.00;93191.91;5091839;28;20199;-77
2023/09/20 06:23:45;;;;;;;23.73;16.90;;;;;;;16.97;100.00;93200.91;5090965;28;20224;-79
2023/09/20 06:26:12;;;;;;;25.40;18.13;;;;;;;17.11;100.00;93200.81;5091476;28;20193;-80
2023/09/20 06:28:41;;;;;;;21.63;17.00;;;;;;;17.27;100.00;93213.34;5091120;28;20280;-80
2023/09/20 06:31:14;;;;;;;30.50;20.10;;;;;;;17.57;100.00;93201.97;5091135;28;20184;-80
2023/09/20 06:33:40;;;;;;;37.57;19.43;;;;;;;17.29;100.00;93205.88;5090607;28;20208;-80
2023/09/20 06:36:06;;;;;;;33.80;19.93;;;;;;;17.13;100.00;93202.09;5091554;28;20975;-79
2023/09/20 06:38:34;;;;;;;30.80;20.60;;;;;;;17.23;100.00;93201.81;5089504;28;20212;-79
2023/09/20 06:41:00;;;;;;;25.30;19.93;;;;;;;17.35;100.00;93201.25;5091482;28;20172;-82
2023/09/20 06:43:27;;;;;;;36.10;21.70;;;;;;;17.39;100.00;93200.31;5090657;28;20224;-79
2023/09/20 06:45:53;;;;;;;34.53;24.30;;;;;;;17.51;100.00;93195.25;5091147;28;20165;-79
2023/09/20 06:48:23;;;;;;;34.90;21.60;;;;;;;17.25;100.00;93199.66;5090984;28;20239;-79
2023/09/20 06:50:49;;;;;;;30.83;22.60;;;;;;;17.42;100.00;93197.06;5090741;28;20177;-79
2023/09/20 06:53:17;;;;;;;34.90;23.00;;;;;;;17.81;100.00;93196.28;5090505;28;20221;-79
2023/09/20 06:55:43;;;;;;;28.43;22.07;;;;;;;18.35;100.00;93197.59;5090553;28;20219;-78
2023/09/20 06:58:08;;;;;;;32.97;22.20;;;;;;;17.82;100.00;93207.63;5090985;28;20259;-79
2023/09/20 07:00:35;;;;;;;29.47;24.30;;;;;;;17.32;100.00;93221.09;5089714;28;20204;-79
2023/09/20 07:03:02;;;;;;;33.80;24.47;;;;;;;17.99;100.00;93212.94;5084300;28;20253;-79
2023/09/20 07:05:31;;;;;;;35.93;25.23;;;;;;;17.83;100.00;93222.38;5090741;28;20209;-79
2023/09/20 07:08:00;;;;;;;31.43;23.33;;;;;;;18.07;100.00;93212.19;5090415;28;20236;-79
2023/09/20 07:10:27;;;;;;;28.50;22.63;;;;;;;18.24;100.00;93210.31;5090782;28;20181;-80
2023/09/20 07:12:55;;;;;;;27.10;23.17;;;;;;;17.91;100.00;93224.28;5069246;28;20235;-78
2023/09/20 07:15:24;;;;;;;31.47;23.90;;;;;;;18.19;100.00;93217.63;5070736;28;20206;-80
2023/09/20 07:17:58;;;;;;;30.07;22.70;;;;;;;18.91;100.00;93224.63;5070486;28;20277;-79
2023/09/20 07:20:33;;;;;;;33.83;24.30;;;;;;;18.83;100.00;93228.06;5069452;28;20191;-78
2023/09/20 07:22:59;;;;;;;30.83;23.93;;;;;;;18.89;100.00;93226.81;5069672;28;20241;-79
2023/09/20 07:25:27;;;;;;;34.70;25.37;;;;;;;18.24;100.00;93226.16;5064774;28;20210;-78
2023/09/20 07:27:59;;;;;;;29.10;22.40;;;;;;;18.74;100.00;93231.81;5062365;28;20240;-78
2023/09/20 07:30:31;;;;;;;27.60;20.27;;;;;;;18.04;100.00;93226.00;5069400;28;20210;-77
2023/09/20 07:32:58;;;;;;;29.43;22.10;;;;;;;18.24;100.00;93220.13;5069666;28;20249;-79
2023/09/20 07:35:26;;;;;;;24.37;19.80;;;;;;;18.77;100.00;93223.25;5070852;28;20231;-79
2023/09/20 07:37:58;;;;;;;25.13;19.70;;;;;;;19.09;100.00;93228.00;5060635;28;20260;-79
2023/09/20 07:40:31;;;;;;;27.07;20.70;;;;;;;19.03;100.00;93245.16;5079382;28;20194;-78
2023/09/20 07:43:04;;;;;;;27.73;21.20;;;;;;;19.10;100.00;93243.59;5089545;28;20229;-79
2023/09/20 07:45:39;;;;;;;36.47;25.00;;;;;;;19.71;100.00;93244.97;5090765;28;20204;-79
2023/09/20 07:48:12;;;;;;;32.60;25.20;;;;;;;18.89;100.00;93248.00;5089514;28;20234;-79
2023/09/20 07:50:49;;;;;;;29.43;25.60;;;;;;;18.97;100.00;93249.06;5090098;28;20186;-79
2023/09/20 07:53:15;;;;;;;32.97;23.80;;;;;;;18.38;100.00;93236.66;5077585;28;20240;-79
2023/09/20 07:55:45;;;;;;;32.30;24.23;;;;;;;18.89;100.00;93231.31;5089706;28;20226;-79
2023/09/20 07:58:15;;;;;;;34.10;24.87;;;;;;;19.59;100.00;93247.53;5078844;28;21388;-80
2023/09/20 08:00:45;;;;;;;32.93;23.63;;;;;;;20.01;100.00;93259.78;5089459;28;20191;-79
2023/09/20 08:03:13;;;;;;;29.60;23.27;;;;;;;19.07;100.00;93248.72;5089295;28;20288;-78
2023/09/20 08:05:41;;;;;;;33.30;23.40;;;;;;;19.06;100.00;93252.47;5089525;28;20179;-77
2023/09/20 08:08:07;;;;;;;28.30;22.93;;;;;;;19.31;100.00;93246.38;5086603;28;20254;-79
2023/09/20 08:10:34;;;;;;;28.70;23.57;;;;;;;19.85;100.00;93242.88;5087353;28;20218;-80
2023/09/20 08:13:01;;;;;;;29.63;21.97;;;;;;;19.76;100.00;93236.84;5070973;28;20260;-78
2023/09/20 08:15:28;;;;;;;31.90;23.23;;;;;;;19.84;100.00;93237.88;5089180;28;20201;-79
2023/09/20 08:20:39;;;;;;;28.30;22.83;;;;;;;19.75;100.00;93243.22;5088339;28;20199;-78
2023/09/20 09:01:37;;;;;;;30.43;22.80;;;;;;;20.03;100.00;93232.97;5079013;28;20304;-80
2023/09/20 09:04:05;;;;;;;31.57;24.63;;;;;;;20.33;100.00;93222.03;5088140;28;20223;-80
2023/09/20 09:06:31;;;;;;;31.77;24.57;;;;;;;19.81;100.00;93219.97;5089196;28;20204;-79
2023/09/20 09:08:56;;;;;;;29.63;22.83;;;;;;;20.13;100.00;93222.78;5088082;28;20229;-79
2023/09/20 09:11:24;;;;;;;29.00;24.03;;;;;;;20.11;100.00;93218.88;5089103;28;20187;-79
2023/09/20 09:13:50;;;;;;;33.17;25.50;;;;;;;20.54;98.90;93227.34;5086778;28;20219;-80
2023/09/20 09:16:19;;;;;;;33.37;24.50;;;;;;;20.65;96.08;93226.59;5088996;28;20258;-78
2023/09/20 09:18:44;;;;;;;32.80;23.90;;;;;;;20.56;99.30;93231.19;5088492;28;20305;-80
2023/09/20 09:21:12;;;;;;;30.40;24.35;;;;;;;20.43;99.32;93216.34;5089086;28;20188;-80
2023/09/20 09:23:44;;;;;;;36.17;26.13;;;;;;;20.58;98.23;93226.34;5088633;28;20260;-80
2023/09/20 09:26:10;;;;;;;34.80;24.77;;;;;;;20.94;94.40;93224.94;5088591;28;20215;-79
2023/09/20 09:28:45;;;;;;;31.25;24.58;;;;;;;20.77;96.09;93230.41;5088479;28;20269;-79
2023/09/20 09:31:12;;;;;;;32.67;25.65;;;;;;;20.80;96.52;93221.78;5088958;28;20179;-79
2023/09/20 09:33:39;;;;;;;33.80;25.08;;;;;;;20.98;94.97;93229.31;5087879;28;20248;-80
2023/09/20 09:36:05;;;;;;;33.47;25.60;;;;;;;20.83;95.26;93213.97;5088790;28;20212;-79
2023/09/20 09:38:33;;;;;;;37.60;25.13;;;;;;;20.91;96.97;93223.72;5088393;28;20302;-80
2023/09/20 09:40:59;;;;;;;31.63;24.25;;;;;;;20.73;97.94;93229.53;5089025;28;20183;-78
2023/09/20 09:43:32;;;;;;;36.03;26.08;;;;;;;20.40;98.74;93221.50;5091995;28;20227;-79
2023/09/20 09:46:06;;;;;;;33.30;26.88;;;;;;;20.15;97.31;93220.59;5092412;28;20178;-80
2023/09/20 09:48:33;;;;;;;36.20;26.80;;;;;;;20.05;99.25;93223.56;5091740;28;20248;-79
2023/09/20 09:50:59;;;;;;;30.97;25.40;;;;;;;20.40;98.68;93219.66;5092223;28;20270;-79
2023/09/20 09:53:25;;;;;;;34.28;25.50;;;;;;;20.87;96.48;93214.09;5091764;28;20295;-80
2023/09/20 09:55:51;;;;;;;37.10;26.13;;;;;;;21.06;96.22;93222.38;5092201;28;20211;-79
2023/09/20 09:58:17;;;;;;;40.45;26.83;;;;;;;21.35;91.40;93216.91;5091490;28;20234;-79
2023/09/20 10:00:48;;;;;;;34.92;26.05;;;;;;;21.29;94.15;93218.22;5094510;28;20189;-77
2023/09/20 10:03:39;;;;;;;37.75;26.60;;;;;;;21.14;95.48;93213.53;5091843;28;20225;-80
2023/09/20 10:06:21;;;;;;;35.97;25.27;;;;;;;21.30;95.11;93217.13;5091643;28;20263;-79
2023/09/20 10:08:51;;;;;;;34.28;25.48;;;;;;;21.40;95.77;93212.13;5090883;28;20249;-76
2023/09/20 10:11:20;;;;;;;35.85;25.65;;;;;;;21.20;93.76;93206.94;5074414;28;20188;-80
2023/09/20 10:13:47;;;;;;;30.08;24.77;;;;;;;21.28;93.25;93216.66;5087755;28;20310;-80
2023/09/20 10:16:17;;;;;;;34.50;24.20;;;;;;;21.35;94.07;93219.56;5090801;28;20209;-80
2023/09/20 10:18:52;;;;;;;34.03;26.80;;;;;;;21.33;94.65;93213.78;5090801;28;20225;-78
2023/09/20 10:21:24;;;;;;;32.50;24.65;;;;;;;21.12;93.42;93213.84;5091702;28;20180;-80
2023/09/20 10:24:15;;;;;;;36.97;27.25;;;;;;;21.36;92.49;93211.25;5090866;28;20307;-78
2023/09/20 10:26:41;;;;;;;34.85;25.75;;;;;;;21.46;93.43;93220.69;5090658;28;20251;-79
2023/09/20 10:29:31;;;;;;;36.15;24.88;;;;;;;21.41;91.15;93212.94;5097085;28;20607;-79
2023/09/20 10:32:19;;;;;;;32.13;23.90;;;;;;;21.25;91.08;93198.72;5091004;28;20241;-79
2023/09/20 10:35:22;;;;;;;35.03;24.13;;;;;;;21.54;90.70;93207.28;5090781;28;20236;-80
2023/09/20 10:38:17;;;;;;;30.35;23.55;;;;;;;21.76;89.62;93203.47;5090776;28;23434;-78
2023/09/20 10:40:51;;;;;;;34.15;23.52;;;;;;;21.58;90.48;93191.47;5091391;28;20245;-80
2023/09/20 10:43:25;;;;;;;33.63;23.50;;;;;;;22.11;86.47;93184.06;5090892;28;20221;-81
2023/09/20 10:45:51;;;;;;;29.63;22.98;;;;;;;21.77;87.69;93189.06;5090987;28;20212;-79
2023/09/20 10:48:27;;;;;;;35.42;21.60;;;;;;;22.04;89.30;93186.50;5090694;28;20277;-79
2023/09/20 10:50:57;;;;;;;28.55;21.00;;;;;;;22.23;87.84;93172.59;5091056;28;20280;-80
2023/09/20 10:53:43;;;;;;;41.50;22.25;;;;;;;22.17;87.49;93168.63;5089705;28;20220;-79
2023/09/20 10:56:30;;;;;;;30.23;23.02;;;;;;;22.18;86.08;93156.88;5090704;28;20907;-78
2023/09/20 10:58:57;;;;;;;29.92;21.15;;;;;;;21.97;85.81;93164.22;5071863;28;20228;-77
2023/09/20 11:01:22;;;;;;;26.05;21.30;;;;;;;22.03;86.46;93165.56;5040904;28;20182;-80
2023/09/20 11:03:47;;;;;;;29.55;21.23;;;;;;;22.13;83.08;93170.41;5081199;28;20709;-79
2023/09/20 11:06:13;;;;;;;26.23;20.02;;;;;;;22.21;84.67;93164.97;5073283;28;20191;-79
2023/09/20 11:08:38;;;;;;;27.13;19.75;;;;;;;22.42;85.36;93156.81;5089903;28;20287;-79
2023/09/20 11:11:07;;;;;;;24.30;18.27;;;;;;;22.66;82.51;93159.44;5090433;28;20189;-79
2023/09/20 11:13:32;;;;;;;19.98;17.80;;;;;;;22.56;81.15;93154.56;5089935;28;20298;-80
2023/09/20 11:16:02;;;;;;;19.83;16.45;;;;;;;22.70;77.48;93154.19;5090607;28;20218;-77
2023/09/20 11:18:28;;;;;;;18.88;16.60;;;;;;;22.67;77.63;93163.63;5089931;28;20239;-80
2023/09/20 11:20:53;;;;;;;20.27;16.27;;;;;;;22.35;78.35;93135.31;5090713;28;20198;-80
2023/09/20 11:23:19;;;;;;;18.60;15.95;;;;;;;22.11;80.32;93146.03;5090141;28;20290;-79
2023/09/20 11:25:44;;;;;;;18.77;15.93;;;;;;;22.27;80.51;93146.88;5090388;28;20180;-80
2023/09/20 11:28:10;;;;;;;18.25;16.33;;;;;;;22.36;76.96;93126.22;5090149;28;20234;-80
2023/09/20 11:30:36;;;;;;;16.70;14.90;;;;;;;22.56;79.35;93148.47;5090255;28;20250;-77
2023/09/20 11:33:01;;;;;;;16.60;14.75;;;;;;;22.72;78.72;93150.09;5089768;28;20306;-80
2023/09/20 11:35:34;;;;;;;16.05;14.55;;;;;;;22.93;77.93;93145.31;5090287;28;20286;-80
2023/09/20 11:38:06;;;;;;;16.15;14.60;;;;;;;22.49;77.79;93141.03;5089788;28;20236;-80
2023/09/20 11:40:34;;;;;;;21.52;14.60;;;;;;;22.66;78.26;93138.13;5090241;28;20332;-80
2023/09/20 11:43:02;;;;;;;23.40;15.80;;;;;;;22.81;77.05;93132.06;5089582;28;20233;-79
2023/09/20 11:45:27;;;;;;;18.70;13.63;;;;;;;22.83;78.32;93123.72;5089993;28;20254;-79
2023/09/20 11:47:53;;;;;;;16.10;13.35;;;;;;;22.77;78.16;93128.50;5088618;28;20235;-79
2023/09/20 11:50:18;;;;;;;21.60;13.48;;;;;;;22.95;74.44;93113.78;5090238;28;20207;-80
2023/09/20 11:52:48;;;;;;;14.07;12.88;;;;;;;22.95;75.49;93123.66;5071444;28;20259;-80
2023/09/20 11:55:15;;;;;;;16.52;12.65;;;;;;;23.13;74.89;93116.91;5089830;28;20233;-79
2023/09/20 11:57:47;;;;;;;15.88;13.02;;;;;;;22.91;72.89;93120.13;5089659;28;20254;-79